Time;durP1;ratioP1;P1;durP2;ratioP2;P2;SDS_P1;SDS_P2;PMS_P1;PMS_P2;Temp;Humidity;BMP_temperature;BMP_pressure;BME280_temperature;BME280_humidity;BME280_pressure;Samples;Min_cycle;Max_cycle;Signal;HPM_P1;HPM_P2
2022/03/23 00:00:22;;;;;;;8.90;3.73;;;;;;;;;;5051459;28;20580;-83
2022/03/23 00:02:50;;;;;;;4.10;3.27;;;;;;;;;;5051487;28;20245;-83
2022/03/23 00:05:18;;;;;;;11.70;3.17;;;;;;;;;;5050949;28;20233;-83
2022/03/23 00:07:45;;;;;;;9.07;3.87;;;;;;;;;;5051431;28;20392;-84
2022/03/23 00:10:14;;;;;;;6.20;2.90;;;;;;;;;;5051456;28;20293;-84
2022/03/23 00:12:42;;;;;;;6.67;3.43;;;;;;;;;;5055011;28;20299;-83
2022/03/23 00:15:09;;;;;;;7.73;3.40;;;;;;;;;;5055069;28;20201;-84
2022/03/23 00:17:37;;;;;;;8.13;3.57;;;;;;;;;;5055110;28;20197;-84
2022/03/23 00:20:05;;;;;;;5.87;2.93;;;;;;;;;;5054958;28;20757;-84
2022/03/23 00:22:32;;;;;;;6.83;3.23;;;;;;;;;;5055145;28;20198;-83
2022/03/23 00:24:59;;;;;;;3.77;3.00;;;;;;;;;;5054803;28;20221;-83
2022/03/23 00:27:28;;;;;;;5.83;3.40;;;;;;;;;;5055138;28;20580;-83
2022/03/23 00:29:55;;;;;;;6.10;3.30;;;;;;;;;;5055173;28;20304;-84
2022/03/23 00:32:22;;;;;;;5.43;3.00;;;;;;;;;;5055178;28;20640;-84
2022/03/23 00:34:50;;;;;;;3.57;3.03;;;;;;;;;;5054408;28;20200;-83
2022/03/23 00:37:17;;;;;;;4.33;3.07;;;;;;;;;;5054820;28;20284;-84
2022/03/23 00:39:44;;;;;;;6.03;2.93;;;;;;;;;;5054857;28;20422;-84
2022/03/23 00:42:12;;;;;;;6.40;3.07;;;;;;;;;;5054655;28;20208;-83
2022/03/23 00:44:40;;;;;;;4.47;2.53;;;;;;;;;;5054127;28;20230;-83
2022/03/23 00:47:08;;;;;;;5.67;2.93;;;;;;;;;;5054642;28;20233;-83
2022/03/23 00:49:35;;;;;;;5.03;2.90;;;;;;;;;;5054402;28;20293;-83
2022/03/23 00:52:05;;;;;;;4.00;2.90;;;;;;;;;;5054523;28;20201;-83
2022/03/23 00:54:34;;;;;;;4.07;2.77;;;;;;;;;;5054317;28;20186;-83
2022/03/23 00:57:01;;;;;;;6.00;3.00;;;;;;;;;;5054536;28;20210;-83
2022/03/23 00:59:28;;;;;;;5.40;2.97;;;;;;;;;;5054244;28;20674;-83
2022/03/23 01:01:57;;;;;;;3.13;2.57;;;;;;;;;;5054286;28;20293;-83
2022/03/23 01:04:25;;;;;;;6.57;3.07;;;;;;;;;;5053844;28;20221;-83
2022/03/23 01:06:52;;;;;;;8.90;3.20;;;;;;;;;;5054549;28;20235;-83
2022/03/23 01:09:22;;;;;;;6.03;2.93;;;;;;;;;;5054313;28;20205;-83
2022/03/23 01:11:50;;;;;;;4.33;2.57;;;;;;;;;;5053946;28;20264;-83
2022/03/23 01:14:17;;;;;;;4.87;2.57;;;;;;;;;;5054046;28;20269;-83
2022/03/23 01:16:44;;;;;;;5.50;2.73;;;;;;;;;;5054053;28;20197;-83
2022/03/23 01:19:13;;;;;;;3.97;3.50;;;;;;;;;;5053799;28;20280;-83
2022/03/23 01:21:41;;;;;;;5.27;3.00;;;;;;;;;;5053783;28;20664;-82
2022/03/23 01:24:09;;;;;;;6.10;3.33;;;;;;;;;;5053434;28;20745;-82
2022/03/23 01:26:37;;;;;;;6.33;2.90;;;;;;;;;;5053843;28;20284;-83
2022/03/23 01:29:05;;;;;;;6.07;3.70;;;;;;;;;;5053606;28;20286;-82
2022/03/23 01:31:32;;;;;;;5.43;3.07;;;;;;;;;;5053745;28;20193;-82
2022/03/23 01:34:00;;;;;;;4.33;3.57;;;;;;;;;;5053867;28;20197;-82
2022/03/23 01:36:29;;;;;;;4.83;3.10;;;;;;;;;;5053528;28;20190;-82
2022/03/23 01:38:57;;;;;;;6.07;3.07;;;;;;;;;;5053816;28;20581;-82
2022/03/23 01:41:24;;;;;;;6.70;3.10;;;;;;;;;;5053641;28;20198;-82
2022/03/23 01:43:52;;;;;;;3.70;3.10;;;;;;;;;;5053334;28;20293;-82
2022/03/23 01:46:19;;;;;;;3.30;3.00;;;;;;;;;;5053261;28;20281;-82
2022/03/23 01:48:47;;;;;;;5.00;3.30;;;;;;;;;;5053311;28;20288;-82
2022/03/23 01:51:16;;;;;;;3.50;3.17;;;;;;;;;;5053611;28;20213;-82
2022/03/23 01:53:44;;;;;;;7.63;3.07;;;;;;;;;;5053191;28;20233;-83
2022/03/23 01:56:14;;;;;;;4.53;2.50;;;;;;;;;;5053357;28;20293;-82
2022/03/23 01:58:41;;;;;;;6.93;2.97;;;;;;;;;;5052897;28;20200;-82
2022/03/23 02:01:08;;;;;;;4.73;2.83;;;;;;;;;;5053451;28;20233;-83
2022/03/23 02:03:35;;;;;;;5.83;2.83;;;;;;;;;;5053032;28;20237;-82
2022/03/23 02:06:03;;;;;;;4.33;2.97;;;;;;;;;;5053067;28;20226;-83
2022/03/23 02:08:30;;;;;;;4.97;2.30;;;;;;;;;;5053047;28;20244;-83
2022/03/23 02:10:59;;;;;;;4.33;2.80;;;;;;;;;;5053233;28;20344;-82
2022/03/23 02:13:26;;;;;;;5.73;3.03;;;;;;;;;;5052762;28;20328;-82
2022/03/23 02:15:53;;;;;;;6.20;3.17;;;;;;;;;;5052445;28;20286;-82
2022/03/23 02:18:21;;;;;;;6.00;2.87;;;;;;;;;;5052854;28;20205;-82
2022/03/23 02:20:48;;;;;;;4.47;2.73;;;;;;;;;;5052713;28;20259;-82
2022/03/23 02:23:17;;;;;;;6.83;3.00;;;;;;;;;;5052862;28;20658;-82
2022/03/23 02:25:46;;;;;;;6.20;2.73;;;;;;;;;;5052500;28;20312;-82
2022/03/23 02:28:14;;;;;;;7.00;3.00;;;;;;;;;;5052744;28;20202;-82
2022/03/23 02:30:42;;;;;;;4.97;3.17;;;;;;;;;;5052544;28;20198;-82
2022/03/23 02:33:09;;;;;;;4.63;2.53;;;;;;;;;;5052309;28;20193;-82
2022/03/23 02:35:37;;;;;;;5.43;3.20;;;;;;;;;;5052411;28;20251;-82
2022/03/23 02:38:04;;;;;;;6.00;2.97;;;;;;;;;;5052566;28;20289;-82
2022/03/23 02:40:33;;;;;;;4.93;2.93;;;;;;;;;;5052394;28;20301;-82
2022/03/23 02:43:00;;;;;;;5.50;2.73;;;;;;;;;;5052725;28;20267;-83
2022/03/23 02:45:28;;;;;;;6.43;3.27;;;;;;;;;;5052266;28;20666;-84
2022/03/23 02:47:56;;;;;;;3.40;2.60;;;;;;;;;;5052451;28;20190;-84
2022/03/23 02:50:24;;;;;;;2.67;2.20;;;;;;;;;;5052068;28;20224;-82
2022/03/23 03:04:02;;;;;;;6.43;3.23;;;;;;;;;;5052328;28;20194;-83
2022/03/23 03:06:29;;;;;;;6.73;3.17;;;;;;;;;;5052053;28;20226;-83
2022/03/23 03:08:57;;;;;;;3.00;2.70;;;;;;;;;;5051576;28;20202;-83
2022/03/23 03:11:25;;;;;;;6.30;3.20;;;;;;;;;;5052001;28;20280;-83
2022/03/23 03:13:52;;;;;;;14.53;3.80;;;;;;;;;;5052137;28;20226;-83
2022/03/23 03:16:20;;;;;;;3.53;3.00;;;;;;;;;;5051726;28;20666;-83
2022/03/23 03:18:48;;;;;;;6.30;3.47;;;;;;;;;;5051843;28;20208;-83
2022/03/23 03:21:16;;;;;;;4.30;2.90;;;;;;;;;;5051832;28;20284;-83
2022/03/23 03:23:43;;;;;;;8.33;3.77;;;;;;;;;;5051677;28;20201;-83
2022/03/23 03:26:11;;;;;;;6.03;3.73;;;;;;;;;;5052023;28;20388;-83
2022/03/23 03:28:40;;;;;;;5.37;3.90;;;;;;;;;;5051790;28;20641;-83
2022/03/23 03:31:09;;;;;;;8.20;4.03;;;;;;;;;;5051766;28;20285;-83
2022/03/23 03:33:38;;;;;;;8.07;4.13;;;;;;;;;;5051561;28;20240;-83
2022/03/23 03:36:05;;;;;;;7.83;4.10;;;;;;;;;;5051684;28;20198;-83
2022/03/23 03:38:33;;;;;;;8.00;3.50;;;;;;;;;;5051660;28;20376;-83
2022/03/23 03:41:02;;;;;;;7.03;3.73;;;;;;;;;;5051513;28;20328;-83
2022/03/23 03:43:29;;;;;;;6.07;3.07;;;;;;;;;;5051569;28;20198;-83
2022/03/23 03:45:58;;;;;;;5.00;3.97;;;;;;;;;;5053015;28;20317;-83
2022/03/23 03:48:25;;;;;;;11.03;3.60;;;;;;;;;;5055437;28;20282;-83
2022/03/23 03:50:53;;;;;;;6.30;3.43;;;;;;;;;;5055681;28;20190;-83
2022/03/23 03:53:20;;;;;;;10.83;3.60;;;;;;;;;;5055891;28;20619;-83
2022/03/23 03:55:47;;;;;;;6.90;4.37;;;;;;;;;;5055411;28;20625;-83
2022/03/23 03:58:17;;;;;;;7.37;3.03;;;;;;;;;;5055635;28;20223;-83
2022/03/23 04:00:44;;;;;;;5.50;3.03;;;;;;;;;;5055327;28;20198;-83
2022/03/23 04:03:14;;;;;;;7.27;3.67;;;;;;;;;;5055540;28;20281;-83
2022/03/23 04:05:41;;;;;;;5.60;3.73;;;;;;;;;;5055198;28;20312;-83
2022/03/23 04:08:08;;;;;;;4.47;3.77;;;;;;;;;;5055338;28;20208;-83
2022/03/23 04:10:36;;;;;;;6.20;3.90;;;;;;;;;;5055005;28;20267;-83
2022/03/23 04:13:03;;;;;;;5.43;3.57;;;;;;;;;;5055211;28;20295;-83
2022/03/23 04:15:31;;;;;;;5.70;3.43;;;;;;;;;;5054940;28;20204;-83
2022/03/23 04:17:58;;;;;;;6.83;3.50;;;;;;;;;;5055099;28;20280;-83
2022/03/23 04:20:27;;;;;;;6.40;4.03;;;;;;;;;;5054658;28;20705;-83
2022/03/23 04:22:55;;;;;;;5.20;3.97;;;;;;;;;;5055162;28;20724;-84
2022/03/23 04:25:22;;;;;;;6.77;4.13;;;;;;;;;;5055118;28;20225;-83
2022/03/23 04:27:51;;;;;;;6.90;4.27;;;;;;;;;;5055308;28;20606;-84
2022/03/23 04:30:20;;;;;;;7.07;3.73;;;;;;;;;;5054596;28;20766;-84
2022/03/23 04:32:49;;;;;;;6.13;4.10;;;;;;;;;;5055051;28;20190;-84
2022/03/23 04:35:16;;;;;;;4.57;3.90;;;;;;;;;;5054711;28;20224;-84
2022/03/23 04:37:45;;;;;;;6.43;4.03;;;;;;;;;;5055130;28;20285;-84
2022/03/23 04:40:14;;;;;;;5.90;3.57;;;;;;;;;;5054349;28;20198;-84
2022/03/23 04:42:42;;;;;;;7.97;4.37;;;;;;;;;;5055187;28;20209;-84
2022/03/23 04:45:11;;;;;;;6.97;4.20;;;;;;;;;;5054398;28;20312;-84
2022/03/23 04:47:38;;;;;;;5.80;3.73;;;;;;;;;;5054662;28;20289;-84
2022/03/23 04:50:08;;;;;;;5.50;3.63;;;;;;;;;;5054219;28;20229;-84
2022/03/23 04:52:36;;;;;;;6.90;3.10;;;;;;;;;;5054619;28;20324;-84
2022/03/23 04:55:06;;;;;;;3.73;2.70;;;;;;;;;;5054532;28;20635;-83
2022/03/23 04:57:33;;;;;;;9.33;4.13;;;;;;;;;;5053729;28;20210;-84
2022/03/23 05:00:00;;;;;;;6.03;4.23;;;;;;;;;;5053106;28;20637;-84
2022/03/23 05:02:27;;;;;;;9.23;4.60;;;;;;;;;;5053335;28;20285;-83
2022/03/23 05:04:55;;;;;;;7.17;4.60;;;;;;;;;;5053159;28;20202;-83
2022/03/23 05:07:22;;;;;;;7.63;5.03;;;;;;;;;;5053250;28;20304;-83
2022/03/23 05:09:49;;;;;;;5.63;3.40;;;;;;;;;;5053149;28;20198;-84
2022/03/23 05:12:18;;;;;;;3.40;3.00;;;;;;;;;;5052905;28;20670;-83
2022/03/23 05:14:45;;;;;;;6.83;3.27;;;;;;;;;;5052921;28;20320;-83
2022/03/23 05:17:12;;;;;;;7.00;3.57;;;;;;;;;;5053699;28;20581;-84
2022/03/23 05:20:03;;;;;;;;;;;;;;;;;;;;;
2022/03/23 05:22:31;;;;;;;6.77;3.17;;;;;;;;;;4999782;28;20202;-84
2022/03/23 05:24:59;;;;;;;5.40;3.47;;;;;;;;;;5033821;28;20221;-83
2022/03/23 05:27:27;;;;;;;6.03;3.93;;;;;;;;;;5033957;28;20234;-84
2022/03/23 05:29:55;;;;;;;5.23;3.50;;;;;;;;;;5033665;28;20198;-83
2022/03/23 05:32:22;;;;;;;4.37;3.47;;;;;;;;;;5034208;28;20654;-83
2022/03/23 05:34:50;;;;;;;4.27;2.80;;;;;;;;;;5033454;28;20290;-83
2022/03/23 05:37:18;;;;;;;4.33;3.30;;;;;;;;;;5033768;28;20234;-84
2022/03/23 05:39:45;;;;;;;5.80;3.03;;;;;;;;;;5033824;28;20281;-84
2022/03/23 05:42:13;;;;;;;4.93;3.63;;;;;;;;;;5033733;28;20202;-84
2022/03/23 05:44:42;;;;;;;7.93;3.23;;;;;;;;;;5033594;28;20209;-84
2022/03/23 05:47:09;;;;;;;4.57;3.23;;;;;;;;;;5033270;28;20229;-84
2022/03/23 05:49:37;;;;;;;3.93;2.93;;;;;;;;;;5022067;28;20199;-85
2022/03/23 05:52:05;;;;;;;4.63;3.77;;;;;;;;;;5033421;28;20199;-85
2022/03/23 05:54:33;;;;;;;3.33;3.03;;;;;;;;;;5033263;28;20207;-85
2022/03/23 05:57:02;;;;;;;9.50;3.13;;;;;;;;;;5033173;28;20195;-85
2022/03/23 05:59:30;;;;;;;3.20;2.90;;;;;;;;;;5032944;28;20203;-84
2022/03/23 06:01:59;;;;;;;5.47;2.97;;;;;;;;;;5033310;28;20675;-86
2022/03/23 06:04:26;;;;;;;3.53;3.23;;;;;;;;;;5033033;28;20209;-85
2022/03/23 06:06:53;;;;;;;3.90;2.90;;;;;;;;;;5032902;28;20234;-84
2022/03/23 06:09:21;;;;;;;6.13;3.17;;;;;;;;;;5031670;28;20202;-86
2022/03/23 06:11:48;;;;;;;3.27;2.97;;;;;;;;;;5032704;28;20719;-86
2022/03/23 06:14:15;;;;;;;8.90;4.47;;;;;;;;;;5032753;28;20279;-85
2022/03/23 06:16:42;;;;;;;5.27;2.90;;;;;;;;;;5033280;28;20226;-85
2022/03/23 06:19:13;;;;;;;7.20;2.80;;;;;;;;;;5032646;28;20199;-85
2022/03/23 06:21:41;;;;;;;4.50;3.30;;;;;;;;;;5033177;28;20190;-85
2022/03/23 06:24:08;;;;;;;5.03;2.37;;;;;;;;;;5032868;28;20194;-86
2022/03/23 06:26:35;;;;;;;4.23;2.50;;;;;;;;;;5032997;28;20233;-86
2022/03/23 06:29:03;;;;;;;4.70;2.63;;;;;;;;;;5032595;28;20264;-86
2022/03/23 06:31:30;;;;;;;5.10;2.97;;;;;;;;;;5032768;28;20218;-83
2022/03/23 06:33:59;;;;;;;4.27;3.37;;;;;;;;;;5031083;28;20269;-83
2022/03/23 06:36:28;;;;;;;3.07;2.57;;;;;;;;;;5032173;28;20257;-83
2022/03/23 06:38:55;;;;;;;4.97;2.53;;;;;;;;;;5032632;28;20608;-82
2022/03/23 06:41:22;;;;;;;6.20;3.70;;;;;;;;;;5032880;28;20301;-83
2022/03/23 06:43:49;;;;;;;5.33;3.87;;;;;;;;;;5032146;28;20245;-83
2022/03/23 06:46:17;;;;;;;3.47;3.17;;;;;;;;;;5032447;28;20785;-83
2022/03/23 06:48:45;;;;;;;4.23;2.83;;;;;;;;;;5032227;28;20298;-83
2022/03/23 06:51:13;;;;;;;4.60;3.23;;;;;;;;;;5032488;28;20202;-83
2022/03/23 06:53:41;;;;;;;4.30;3.30;;;;;;;;;;5032193;28;20199;-83
2022/03/23 06:56:09;;;;;;;4.77;3.20;;;;;;;;;;5032337;28;20234;-83
2022/03/23 06:58:36;;;;;;;5.60;2.60;;;;;;;;;;5032452;28;20233;-83
2022/03/23 07:01:04;;;;;;;6.67;3.27;;;;;;;;;;5031965;28;20289;-83
2022/03/23 07:03:31;;;;;;;6.50;4.17;;;;;;;;;;5032132;28;20245;-82
2022/03/23 07:05:58;;;;;;;5.77;2.73;;;;;;;;;;5031919;28;20222;-83
2022/03/23 07:11:11;;;;;;;6.20;3.50;;;;;;;;;;5032217;28;20182;-83
2022/03/23 07:13:39;;;;;;;4.17;3.20;;;;;;;;;;5031987;28;20329;-83
2022/03/23 07:16:06;;;;;;;2.50;2.30;;;;;;;;;;5032301;28;20286;-83
2022/03/23 07:18:33;;;;;;;6.90;3.03;;;;;;;;;;5031955;28;20290;-83
2022/03/23 07:21:04;;;;;;;11.70;7.23;;;;;;;;;;5031566;28;20226;-83
2022/03/23 07:23:31;;;;;;;29.00;17.37;;;;;;;;;;5032255;28;20183;-82
2022/03/23 07:25:59;;;;;;;4.07;3.27;;;;;;;;;;5031757;28;20317;-84
2022/03/23 07:28:28;;;;;;;5.40;4.17;;;;;;;;;;5032120;28;20269;-82
2022/03/23 07:30:55;;;;;;;37.60;17.37;;;;;;;;;;5031510;28;20298;-82
2022/03/23 07:33:23;;;;;;;30.77;15.67;;;;;;;;;;5031893;28;20202;-83
2022/03/23 07:35:50;;;;;;;23.63;13.07;;;;;;;;;;5031914;28;20278;-83
2022/03/23 07:38:17;;;;;;;17.03;10.13;;;;;;;;;;5031842;28;20190;-83
2022/03/23 07:40:44;;;;;;;6.23;4.93;;;;;;;;;;5031645;28;20229;-83
2022/03/23 07:43:12;;;;;;;6.07;4.33;;;;;;;;;;5032070;28;20234;-83
2022/03/23 07:45:40;;;;;;;5.00;4.27;;;;;;;;;;5031490;28;20201;-83
2022/03/23 07:48:08;;;;;;;6.23;4.57;;;;;;;;;;5031805;28;20205;-83
2022/03/23 07:50:35;;;;;;;5.43;3.60;;;;;;;;;;5031548;28;20202;-83
2022/03/23 07:53:02;;;;;;;5.07;2.73;;;;;;;;;;5031738;28;20260;-83
2022/03/23 07:55:30;;;;;;;8.40;3.93;;;;;;;;;;5031542;28;20713;-83
2022/03/23 07:57:57;;;;;;;2.53;2.30;;;;;;;;;;5031666;28;20220;-83
2022/03/23 08:00:24;;;;;;;3.70;3.40;;;;;;;;;;5031340;28;20199;-83
2022/03/23 08:02:53;;;;;;;6.30;4.20;;;;;;;;;;5031606;28;20293;-83
2022/03/23 08:05:20;;;;;;;3.63;3.17;;;;;;;;;;5031430;28;20290;-83
2022/03/23 08:07:47;;;;;;;5.13;3.10;;;;;;;;;;5031134;28;20292;-83
2022/03/23 08:10:14;;;;;;;5.00;3.93;;;;;;;;;;5031339;28;20746;-83
2022/03/23 08:12:42;;;;;;;3.73;3.43;;;;;;;;;;5031264;28;20321;-83
2022/03/23 08:15:10;;;;;;;3.23;2.97;;;;;;;;;;5031110;28;20202;-83
2022/03/23 08:17:38;;;;;;;6.30;3.30;;;;;;;;;;5031525;28;20574;-83
2022/03/23 08:22:54;;;;;;;3.37;2.60;;;;;;;;;;5031834;28;20674;-83
2022/03/23 08:25:21;;;;;;;7.07;3.23;;;;;;;;;;5031243;28;20289;-83
2022/03/23 08:27:48;;;;;;;9.10;7.00;;;;;;;;;;5030986;28;20317;-83
2022/03/23 08:30:15;;;;;;;4.83;2.90;;;;;;;;;;5031234;28;20683;-83
2022/03/23 08:32:43;;;;;;;6.00;3.47;;;;;;;;;;5033899;28;20204;-83
2022/03/23 08:35:11;;;;;;;3.67;3.13;;;;;;;;;;5033826;28;20238;-83
2022/03/23 08:37:39;;;;;;;5.23;3.40;;;;;;;;;;5033160;28;20406;-83
2022/03/23 08:40:07;;;;;;;4.37;3.43;;;;;;;;;;5034634;28;20261;-84
2022/03/23 08:42:34;;;;;;;4.33;3.20;;;;;;;;;;5034799;28;20691;-83
2022/03/23 08:45:02;;;;;;;6.97;3.63;;;;;;;;;;5034667;28;20197;-83
2022/03/23 08:47:29;;;;;;;4.60;3.77;;;;;;;;;;5034626;28;20641;-83
2022/03/23 08:49:57;;;;;;;6.07;3.57;;;;;;;;;;5034502;28;20195;-83
2022/03/23 08:52:28;;;;;;;5.00;3.27;;;;;;;;;;5034712;28;20278;-84
2022/03/23 08:54:55;;;;;;;3.93;2.90;;;;;;;;;;5034814;28;20302;-83
2022/03/23 08:57:23;;;;;;;7.60;3.50;;;;;;;;;;5034333;28;20198;-83
2022/03/23 08:59:50;;;;;;;3.27;2.50;;;;;;;;;;5034686;28;20555;-83
2022/03/23 09:02:17;;;;;;;4.73;3.03;;;;;;;;;;5034685;28;20199;-84
2022/03/23 09:04:45;;;;;;;4.93;3.50;;;;;;;;;;5034308;28;20209;-83
2022/03/23 09:07:12;;;;;;;5.23;3.77;;;;;;;;;;5034272;28;20262;-84
2022/03/23 09:09:41;;;;;;;3.33;2.70;;;;;;;;;;5033900;28;20289;-83
2022/03/23 09:12:09;;;;;;;3.57;3.27;;;;;;;;;;5034000;28;20321;-83
2022/03/23 09:14:37;;;;;;;3.73;3.30;;;;;;;;;;5034019;28;20198;-83
2022/03/23 09:17:04;;;;;;;11.00;4.10;;;;;;;;;;5034272;28;20252;-83
2022/03/23 09:19:32;;;;;;;13.03;3.63;;;;;;;;;;5033764;28;20267;-83
2022/03/23 09:22:00;;;;;;;5.10;3.27;;;;;;;;;;5034171;28;20277;-83
2022/03/23 09:24:28;;;;;;;6.10;3.17;;;;;;;;;;5033900;28;20199;-84
2022/03/23 09:26:56;;;;;;;12.17;7.23;;;;;;;;;;5034014;28;20317;-83
2022/03/23 09:29:24;;;;;;;5.57;3.70;;;;;;;;;;5033666;28;20709;-83
2022/03/23 09:31:51;;;;;;;9.40;5.37;;;;;;;;;;5033976;28;20723;-83
2022/03/23 09:34:18;;;;;;;9.60;4.70;;;;;;;;;;5033639;28;20285;-83
2022/03/23 09:39:30;;;;;;;4.33;3.73;;;;;;;;;;5033528;28;20182;-83
2022/03/23 09:41:59;;;;;;;4.63;3.80;;;;;;;;;;5034028;28;20203;-83
2022/03/23 09:44:28;;;;;;;11.40;3.23;;;;;;;;;;5033503;28;20221;-83
2022/03/23 09:46:56;;;;;;;4.33;2.73;;;;;;;;;;5033934;28;20226;-84
2022/03/23 09:49:25;;;;;;;5.20;2.90;;;;;;;;;;5033347;28;20330;-83
2022/03/23 09:51:53;;;;;;;6.53;3.10;;;;;;;;;;5033491;28;20191;-83
2022/03/23 09:54:22;;;;;;;5.03;2.90;;;;;;;;;;5033297;28;20199;-83
2022/03/23 09:56:49;;;;;;;4.13;2.87;;;;;;;;;;5033410;28;20201;-83
2022/03/23 09:59:18;;;;;;;4.30;2.70;;;;;;;;;;5033254;28;20310;-83
2022/03/23 10:02:18;;;;;;;3.03;2.20;;;;;;;;;;5033552;28;20199;-84
2022/03/23 10:05:45;;;;;;;5.00;3.33;;;;;;;;;;5002474;28;20213;-83
2022/03/23 10:08:46;;;;;;;3.83;3.43;;;;;;;;;;5033264;28;20720;-83
2022/03/23 10:11:52;;;;;;;2.60;2.40;;;;;;;;;;5000393;28;20230;-83
2022/03/23 10:15:16;;;;;;;3.00;2.70;;;;;;;;;;5012983;28;20284;-83
2022/03/23 10:18:05;;;;;;;3.43;3.07;;;;;;;;;;5013385;28;20662;-83
2022/03/23 10:20:32;;;;;;;6.83;4.10;;;;;;;;;;5006659;28;20204;-84
2022/03/23 10:22:59;;;;;;;16.00;10.10;;;;;;;;;;5013038;28;20294;-83
2022/03/23 10:25:28;;;;;;;10.90;4.70;;;;;;;;;;5013025;28;20300;-84
2022/03/23 10:27:56;;;;;;;6.37;3.40;;;;;;;;;;5013002;28;20230;-83
2022/03/23 10:30:34;;;;;;;5.37;3.03;;;;;;;;;;5013094;28;20634;-83
2022/03/23 10:33:02;;;;;;;3.67;3.37;;;;;;;;;;5013402;28;20262;-84
2022/03/23 10:35:36;;;;;;;3.40;3.10;;;;;;;;;;5013115;28;20632;-83
2022/03/23 10:38:14;;;;;;;3.27;2.93;;;;;;;;;;5013115;28;20189;-83
2022/03/23 10:40:41;;;;;;;2.63;2.43;;;;;;;;;;5012869;28;20279;-83
2022/03/23 10:43:11;;;;;;;3.33;3.03;;;;;;;;;;5012890;28;20202;-83
2022/03/23 10:45:40;;;;;;;6.33;3.30;;;;;;;;;;5012617;28;20294;-84
2022/03/23 10:48:08;;;;;;;8.57;3.87;;;;;;;;;;5012727;28;20277;-83
2022/03/23 10:50:36;;;;;;;6.23;4.43;;;;;;;;;;5012292;28;20200;-83
2022/03/23 10:53:06;;;;;;;4.83;4.33;;;;;;;;;;5012757;28;20234;-84
2022/03/23 10:55:39;;;;;;;4.57;3.07;;;;;;;;;;5012004;28;20202;-83
2022/03/23 10:58:27;;;;;;;5.83;3.67;;;;;;;;;;5012501;28;20708;-84
2022/03/23 11:00:59;;;;;;;2.93;2.73;;;;;;;;;;5012866;28;20574;-83
2022/03/23 11:03:37;;;;;;;3.20;2.90;;;;;;;;;;5012640;28;20250;-83
2022/03/23 11:06:06;;;;;;;3.93;3.17;;;;;;;;;;5012455;28;20283;-83
2022/03/23 11:08:33;;;;;;;3.90;2.73;;;;;;;;;;5012192;28;20274;-83
2022/03/23 11:16:33;;;;;;;3.73;2.73;;;;;;;;;;4993229;28;20665;-83
2022/03/23 11:19:07;;;;;;;8.23;3.23;;;;;;;;;;4992530;28;20196;-83
2022/03/23 11:21:34;;;;;;;5.43;3.57;;;;;;;;;;4992761;28;20197;-83
2022/03/23 11:24:02;;;;;;;3.63;3.03;;;;;;;;;;4992397;28;20743;-83
2022/03/23 11:26:31;;;;;;;3.93;3.10;;;;;;;;;;4992648;28;20258;-83
2022/03/23 11:28:58;;;;;;;3.77;2.90;;;;;;;;;;4992417;28;20679;-83
2022/03/23 11:31:26;;;;;;;3.83;3.37;;;;;;;;;;4992604;28;20200;-83
2022/03/23 11:33:57;;;;;;;3.90;3.50;;;;;;;;;;4992206;28;20208;-83
2022/03/23 11:36:27;;;;;;;5.57;5.00;;;;;;;;;;4992514;28;20197;-83
2022/03/23 11:38:59;;;;;;;4.70;4.10;;;;;;;;;;4992543;28;20258;-83
2022/03/23 11:41:26;;;;;;;3.70;3.30;;;;;;;;;;4992476;28;20622;-84
2022/03/23 11:43:54;;;;;;;3.80;3.50;;;;;;;;;;4992111;28;20288;-84
2022/03/23 11:46:22;;;;;;;6.37;4.00;;;;;;;;;;4992465;28;20203;-83
2022/03/23 11:48:58;;;;;;;5.37;3.20;;;;;;;;;;4992472;28;20310;-84
2022/03/23 11:51:38;;;;;;;4.63;3.23;;;;;;;;;;4992797;28;20277;-83
2022/03/23 11:54:11;;;;;;;5.77;3.80;;;;;;;;;;4992053;28;20192;-83
2022/03/23 11:56:46;;;;;;;4.77;2.97;;;;;;;;;;4992701;28;20273;-84
2022/03/23 11:59:21;;;;;;;4.57;3.07;;;;;;;;;;4992475;28;20638;-84
2022/03/23 12:01:48;;;;;;;5.83;2.70;;;;;;;;;;4992670;28;20201;-83
2022/03/23 12:04:19;;;;;;;5.10;3.40;;;;;;;;;;4992158;28;20633;-83
2022/03/23 12:06:47;;;;;;;4.90;3.57;;;;;;;;;;4993530;28;20193;-83
2022/03/23 12:09:32;;;;;;;4.00;3.60;;;;;;;;;;4995990;28;20213;-84
2022/03/23 12:11:59;;;;;;;4.27;3.20;;;;;;;;;;5007583;28;20232;-83
2022/03/23 12:14:28;;;;;;;4.97;3.23;;;;;;;;;;5034920;28;20289;-83
2022/03/23 12:17:23;;;;;;;3.57;2.80;;;;;;;;;;5035376;28;20300;-83
2022/03/23 12:20:08;;;;;;;3.53;3.13;;;;;;;;;;5035119;28;20239;-84
2022/03/23 12:23:14;;;;;;;4.33;3.47;;;;;;;;;;5035571;28;20187;-83
2022/03/23 12:26:06;;;;;;;5.37;4.07;;;;;;;;;;5034826;28;20187;-83
2022/03/23 12:28:44;;;;;;;3.00;2.80;;;;;;;;;;5016273;28;20220;-83
2022/03/23 12:31:14;;;;;;;4.13;3.17;;;;;;;;;;5035401;28;20612;-83
2022/03/23 12:34:16;;;;;;;4.97;2.90;;;;;;;;;;5035246;28;20953;-84
2022/03/23 12:36:59;;;;;;;3.27;2.70;;;;;;;;;;4954890;29;20228;-83
2022/03/23 12:39:32;;;;;;;4.33;2.70;;;;;;;;;;4954703;29;20193;-84
2022/03/23 12:42:01;;;;;;;4.70;3.10;;;;;;;;;;4954477;29;20235;-83
2022/03/23 12:44:32;;;;;;;6.57;4.10;;;;;;;;;;4954629;29;20279;-83
2022/03/23 12:47:05;;;;;;;3.93;3.53;;;;;;;;;;4954625;29;20296;-83
2022/03/23 12:58:04;;;;;;;3.27;2.97;;;;;;;;;;4954619;29;20181;-83
2022/03/23 13:00:33;;;;;;;6.30;3.27;;;;;;;;;;4954418;29;20210;-83
2022/03/23 13:03:33;;;;;;;3.40;3.10;;;;;;;;;;4954272;29;20214;-83
2022/03/23 13:06:08;;;;;;;2.70;2.50;;;;;;;;;;4931801;29;20246;-84
2022/03/23 13:08:47;;;;;;;3.30;2.97;;;;;;;;;;5027298;28;20622;-83
2022/03/23 13:11:16;;;;;;;6.50;3.20;;;;;;;;;;5034655;28;20187;-83
2022/03/23 13:13:46;;;;;;;5.00;2.90;;;;;;;;;;5033922;28;20297;-83
2022/03/23 13:16:15;;;;;;;3.60;2.70;;;;;;;;;;5034557;28;20237;-83
2022/03/23 13:18:44;;;;;;;5.13;2.83;;;;;;;;;;5033604;28;20294;-84
2022/03/23 13:21:12;;;;;;;5.07;3.40;;;;;;;;;;5034736;28;20285;-83
2022/03/23 13:23:42;;;;;;;4.67;3.13;;;;;;;;;;5033780;28;20248;-84
2022/03/23 13:26:10;;;;;;;4.40;3.70;;;;;;;;;;5034410;28;20292;-83
2022/03/23 13:28:40;;;;;;;5.10;4.60;;;;;;;;;;5034166;28;20372;-83
2022/03/23 13:31:09;;;;;;;6.17;3.40;;;;;;;;;;5033932;28;20205;-83
2022/03/23 13:33:38;;;;;;;5.00;2.83;;;;;;;;;;5033567;28;20204;-83
2022/03/23 13:36:07;;;;;;;5.13;4.60;;;;;;;;;;5034042;28;20214;-83
2022/03/23 13:38:35;;;;;;;5.00;3.90;;;;;;;;;;5033830;28;20205;-83
2022/03/23 13:43:51;;;;;;;2.97;2.67;;;;;;;;;;5033735;28;20190;-83
2022/03/23 13:46:18;;;;;;;3.13;2.70;;;;;;;;;;5033993;28;20260;-83
2022/03/23 13:48:45;;;;;;;3.67;3.07;;;;;;;;;;5033457;28;20222;-83
2022/03/23 13:51:13;;;;;;;3.27;2.63;;;;;;;;;;5033609;28;20286;-83
2022/03/23 13:53:40;;;;;;;4.03;3.10;;;;;;;;;;5033256;28;20293;-83
2022/03/23 13:56:09;;;;;;;4.07;3.30;;;;;;;;;;5033450;28;20210;-83
2022/03/23 13:58:36;;;;;;;6.87;4.10;;;;;;;;;;5033389;28;20671;-83
2022/03/23 14:01:04;;;;;;;4.33;3.10;;;;;;;;;;5033447;28;20248;-83
2022/03/23 14:03:35;;;;;;;3.97;3.57;;;;;;;;;;5033057;28;20238;-83
2022/03/23 14:06:03;;;;;;;4.33;3.53;;;;;;;;;;5033606;28;20638;-83
2022/03/23 14:08:31;;;;;;;6.97;4.20;;;;;;;;;;5033108;28;20226;-83
2022/03/23 14:10:59;;;;;;;5.83;3.77;;;;;;;;;;5033468;28;20344;-83
2022/03/23 14:13:28;;;;;;;6.00;4.97;;;;;;;;;;5032756;28;20646;-83
2022/03/23 14:15:56;;;;;;;4.73;4.13;;;;;;;;;;5032756;28;20337;-83
2022/03/23 14:18:25;;;;;;;4.47;3.37;;;;;;;;;;5033082;28;20200;-83
2022/03/23 14:20:54;;;;;;;5.00;3.40;;;;;;;;;;5032823;28;20201;-83
2022/03/23 14:23:22;;;;;;;4.03;3.43;;;;;;;;;;5032700;28;20286;-83
2022/03/23 14:25:50;;;;;;;6.40;4.23;;;;;;;;;;5032730;28;20663;-83
2022/03/23 14:28:19;;;;;;;3.33;3.07;;;;;;;;;;5032842;28;20222;-82
2022/03/23 14:30:50;;;;;;;10.20;6.83;;;;;;;;;;5032269;28;20194;-83
2022/03/23 14:33:20;;;;;;;4.20;3.60;;;;;;;;;;5033206;28;20337;-83
2022/03/23 14:35:48;;;;;;;4.10;3.80;;;;;;;;;;5032396;28;20202;-83
2022/03/23 14:38:17;;;;;;;10.27;6.67;;;;;;;;;;5033024;28;20194;-83
2022/03/23 14:40:49;;;;;;;10.00;6.53;;;;;;;;;;5032711;28;20285;-83
2022/03/23 14:43:31;;;;;;;7.10;5.20;;;;;;;;;;5032394;28;20238;-83
2022/03/23 14:46:20;;;;;;;5.10;4.60;;;;;;;;;;5032805;28;20290;-83
2022/03/23 14:48:48;;;;;;;6.20;4.97;;;;;;;;;;5032627;28;20675;-83
2022/03/23 14:51:16;;;;;;;4.00;3.60;;;;;;;;;;5032280;28;20287;-83
2022/03/23 14:53:47;;;;;;;6.23;3.90;;;;;;;;;;5032039;28;20634;-83
2022/03/23 14:56:14;;;;;;;5.60;4.87;;;;;;;;;;5032416;28;20715;-83
2022/03/23 14:58:41;;;;;;;5.77;3.90;;;;;;;;;;5032195;28;20279;-82
2022/03/23 15:01:10;;;;;;;6.33;5.17;;;;;;;;;;5032334;28;20199;-83
2022/03/23 15:03:38;;;;;;;6.80;4.23;;;;;;;;;;5032110;28;20199;-83
2022/03/23 15:14:21;;;;;;;5.90;4.30;;;;;;;;;;5032034;28;20259;-83
2022/03/23 15:16:50;;;;;;;11.57;8.53;;;;;;;;;;5032204;28;20286;-83
2022/03/23 15:19:17;;;;;;;8.53;5.83;;;;;;;;;;5031942;28;20229;-82
2022/03/23 15:21:46;;;;;;;6.33;5.00;;;;;;;;;;5032040;28;20214;-83
2022/03/23 15:24:14;;;;;;;6.20;5.20;;;;;;;;;;5031954;28;20199;-83
2022/03/23 15:26:41;;;;;;;7.47;6.77;;;;;;;;;;5032081;28;20233;-83
2022/03/23 15:29:08;;;;;;;9.23;7.60;;;;;;;;;;5031621;28;20223;-83
2022/03/23 15:31:36;;;;;;;7.93;6.40;;;;;;;;;;5029757;28;20297;-85
2022/03/23 15:34:04;;;;;;;6.27;5.57;;;;;;;;;;5030963;28;20190;-84
2022/03/23 15:36:32;;;;;;;10.03;5.50;;;;;;;;;;5031669;28;20564;-84
2022/03/23 15:38:59;;;;;;;9.27;6.23;;;;;;;;;;5031310;28;20226;-84
2022/03/23 15:41:26;;;;;;;8.97;5.90;;;;;;;;;;5036024;28;20679;-84